createdAt,value
2022-08-29T00:04:14.688Z,21.04
2022-08-29T00:14:20.899Z,21.04
2022-08-29T00:24:25.037Z,20.97
2022-08-29T00:34:26.651Z,20.90
2022-08-29T00:44:28.606Z,20.75
2022-08-29T00:54:30.978Z,20.61
2022-08-29T01:04:33.569Z,20.66
2022-08-29T01:14:38.630Z,20.55
2022-08-29T01:24:51.390Z,20.54
2022-08-29T01:34:53.832Z,20.33
2022-08-29T01:44:58.674Z,20.27
2022-08-29T01:55:00.248Z,20.19
2022-08-29T02:05:01.705Z,20.13
2022-08-29T02:15:04.306Z,20.15
2022-08-29T02:25:27.374Z,20.07
2022-08-29T02:35:29.139Z,19.99
2022-08-29T02:45:33.323Z,20.05
2022-08-29T02:55:34.893Z,19.95
2022-08-29T03:05:37.318Z,19.93
2022-08-29T03:15:39.290Z,19.82
2022-08-29T03:25:40.982Z,19.64
2022-08-29T03:35:42.479Z,19.48
2022-08-29T03:45:43.974Z,19.39
2022-08-29T03:55:46.306Z,19.33
2022-08-29T04:05:47.759Z,19.37
2022-08-29T04:15:53.571Z,19.31
2022-08-29T04:26:07.390Z,19.41
2022-08-29T04:36:17.102Z,19.50
2022-08-29T04:46:23.828Z,19.59
2022-08-29T04:56:26.243Z,19.69
2022-08-29T05:06:28.755Z,20.05
2022-08-29T05:16:31.147Z,20.41
2022-08-29T05:26:43.032Z,20.88
2022-08-29T05:36:45.222Z,21.27
2022-08-29T05:46:46.881Z,21.95
2022-08-29T05:56:48.519Z,22.36
2022-08-29T06:06:52.970Z,22.54
2022-08-29T06:16:55.426Z,23.12
2022-08-29T06:26:57.282Z,23.56
2022-08-29T06:36:59.542Z,24.19
2022-08-29T06:47:01.175Z,24.86
2022-08-29T06:57:02.698Z,37.11
2022-08-29T07:07:05.263Z,43.26
2022-08-29T07:17:06.782Z,46.86
2022-08-29T07:27:09.357Z,50.63
2022-08-29T07:37:10.924Z,51.25
2022-08-29T07:47:12.435Z,52.35
2022-08-29T07:57:17.727Z,53.34
2022-08-29T08:07:19.279Z,54.08
2022-08-29T08:17:21.317Z,53.57
2022-08-29T08:27:22.865Z,53.88
2022-08-29T08:37:27.889Z,52.73
2022-08-29T08:47:44.205Z,53.80
2022-08-29T08:57:56.182Z,54.10
2022-08-29T09:08:28.609Z,53.08
2022-08-29T09:18:35.581Z,53.31
2022-08-29T09:28:37.976Z,52.44
2022-08-29T09:38:39.498Z,52.57
2022-08-29T09:48:47.226Z,52.50
2022-08-29T09:59:04.234Z,50.60
2022-08-29T10:09:12.257Z,51.42
2022-08-29T10:19:18.691Z,51.58
2022-08-29T10:29:38.706Z,49.32
2022-08-29T10:40:02.956Z,51.18
2022-08-29T10:50:43.628Z,51.56
2022-08-29T11:00:58.368Z,50.71
2022-08-29T11:11:01.557Z,41.48
2022-08-29T11:21:19.076Z,37.89
2022-08-29T11:31:42.024Z,35.79
2022-08-29T11:41:48.235Z,35.76
2022-08-29T11:51:54.703Z,35.39
2022-08-29T12:02:00.733Z,35.06
2022-08-29T12:12:02.401Z,35.33
2022-08-29T12:22:03.958Z,33.62
2022-08-29T12:32:39.900Z,34.69
2022-08-29T12:42:41.756Z,35.78
2022-08-29T12:52:43.391Z,36.12
2022-08-29T13:03:15.527Z,36.66
2022-08-29T13:13:20.925Z,36.67
2022-08-29T13:23:29.061Z,35.85
2022-08-29T13:33:35.083Z,35.69
2022-08-29T13:43:45.738Z,36.07
2022-08-29T13:53:47.410Z,36.82
2022-08-29T14:03:50.358Z,37.82
2022-08-29T14:13:52.053Z,38.09
2022-08-29T14:23:54.165Z,37.34
2022-08-29T14:33:55.646Z,37.24
2022-08-29T14:43:57.349Z,35.48
2022-08-29T14:53:58.839Z,34.67
2022-08-29T15:04:00.336Z,35.16
2022-08-29T15:14:04.336Z,34.93
2022-08-29T15:24:06.969Z,34.37
2022-08-29T15:34:08.532Z,33.17
2022-08-29T15:44:10.077Z,32.89
2022-08-29T15:54:12.355Z,31.83
2022-08-29T16:04:15.420Z,31.46
2022-08-29T16:24:39.325Z,30.66
2022-08-29T16:34:40.808Z,30.58
2022-08-29T16:44:42.507Z,30.65
2022-08-29T16:54:44.008Z,30.44
2022-08-29T17:04:46.899Z,30.26
2022-08-29T17:14:50.464Z,30.04
2022-08-29T17:24:56.452Z,29.47
2022-08-29T17:34:57.985Z,29.00
2022-08-29T17:44:59.554Z,28.73
2022-08-29T17:55:07.043Z,28.18
2022-08-29T18:05:13.029Z,27.87
2022-08-29T18:15:15.293Z,27.71
2022-08-29T18:25:22.761Z,27.34
2022-08-29T18:35:24.585Z,26.93
2022-08-29T18:45:26.088Z,26.69
2022-08-29T18:55:28.101Z,26.51
2022-08-29T19:05:31.897Z,26.19
2022-08-29T19:15:34.722Z,25.89
2022-08-29T19:25:43.557Z,25.82
2022-08-29T19:35:49.014Z,25.75
2022-08-29T19:45:51.663Z,25.77
2022-08-29T19:55:55.092Z,25.80
2022-08-29T20:05:57.202Z,25.77
2022-08-29T20:15:58.916Z,25.74
2022-08-29T20:26:01.574Z,25.36
2022-08-29T20:36:22.154Z,24.97
2022-08-29T20:46:23.965Z,24.76
2022-08-29T20:56:25.649Z,24.49
2022-08-29T21:06:27.145Z,24.33
2022-08-29T21:16:29.497Z,24.18
2022-08-29T21:26:31.120Z,24.09
2022-08-29T21:36:32.593Z,23.98
2022-08-29T21:46:37.545Z,23.81
2022-08-29T21:56:39.182Z,23.62
2022-08-29T22:06:43.224Z,23.49
2022-08-29T22:16:45.385Z,23.36
2022-08-29T22:26:47.309Z,23.25
2022-08-29T22:36:48.818Z,23.14
2022-08-29T22:46:52.746Z,22.98
2022-08-29T22:56:54.600Z,22.79
2022-08-29T23:06:56.284Z,22.58
2022-08-29T23:16:57.798Z,22.46
2022-08-29T23:26:59.885Z,22.38
2022-08-29T23:37:01.775Z,22.34
2022-08-29T23:47:03.699Z,22.24
2022-08-29T23:57:05.168Z,22.18
